Rabbit Hole, Nevada
Current Conditions -  °F | °C
As of 2:53 PM on Monday 22 Dec 2014 (Local Time) from KLOL Reporting Station
Scattered Clouds Scattered Clouds  
Wind Chill: 56°   Ceiling: Unl
Heat Index: 56°   Visibility: 10mi
Dew Point: 40°   Wind: 14mph
Humidity: 55%   Direction: 300°WNW
Pressure: 30.24"   Gusts: NA
Location:  40.3545°N, 118.628°W
Report Text: KLOL 222253Z AUTO 30012KT 10SM FEW050 SCT060 13/04 A3024 RMK AO2 SLP238 T01330044
Loading
Personal Weather Stations






























Interactive Weather Map New forecast layout! Learn more

10-Day Weather Forecast

Advertisements
Track Severe Weather on mobile